createdAt,value
2022-09-17T00:01:22.079Z,76.60
2022-09-17T00:03:53.669Z,76.50
2022-09-17T00:06:21.900Z,76.40
2022-09-17T00:08:50.025Z,76.50
2022-09-17T00:11:21.190Z,76.50
2022-09-17T00:13:50.282Z,76.50
2022-09-17T00:16:25.950Z,76.60
2022-09-17T00:18:55.581Z,76.60
2022-09-17T00:21:23.917Z,76.50
2022-09-17T00:23:56.090Z,76.60
2022-09-17T00:26:23.906Z,76.60
2022-09-17T00:28:52.959Z,76.70
2022-09-17T00:31:20.886Z,76.80
2022-09-17T00:33:49.076Z,76.80
2022-09-17T00:36:20.506Z,76.80
2022-09-17T00:38:50.481Z,76.80
2022-09-17T00:41:18.191Z,76.90
2022-09-17T00:43:48.115Z,76.90
2022-09-17T00:46:27.144Z,76.80
2022-09-17T00:48:56.147Z,76.70
2022-09-17T00:51:30.027Z,76.70
2022-09-17T00:53:58.345Z,76.70
2022-09-17T00:56:29.220Z,76.60
2022-09-17T00:58:57.209Z,76.70
2022-09-17T01:01:25.572Z,76.80
2022-09-17T01:03:53.290Z,76.70
2022-09-17T01:06:33.837Z,76.70
2022-09-17T01:09:15.026Z,77.60
2022-09-17T01:11:55.957Z,76.90
2022-09-17T01:14:37.937Z,77.00
2022-09-17T01:17:16.606Z,77.00
2022-09-17T01:20:09.293Z,77.00
2022-09-17T01:22:46.730Z,77.00
2022-09-17T01:25:24.973Z,76.90
2022-09-17T01:28:35.808Z,76.90
2022-09-17T01:31:38.949Z,77.00
2022-09-17T01:34:17.398Z,77.00
2022-09-17T01:36:58.872Z,77.00
2022-09-17T01:39:35.364Z,77.00
2022-09-17T01:42:15.230Z,76.90
2022-09-17T01:44:53.239Z,77.00
2022-09-17T01:47:26.353Z,77.00
2022-09-17T01:50:00.795Z,77.70
2022-09-17T01:52:31.103Z,77.00
2022-09-17T01:55:04.729Z,76.90
2022-09-17T01:57:36.564Z,76.90
2022-09-17T02:00:08.533Z,76.90
2022-09-17T02:02:42.906Z,76.90
2022-09-17T02:05:15.860Z,76.90
2022-09-17T02:07:48.214Z,76.90
2022-09-17T02:10:21.011Z,76.90
2022-09-17T02:12:55.128Z,76.80
2022-09-17T02:15:27.601Z,76.80
2022-09-17T02:18:00.525Z,76.70
2022-09-17T02:20:35.624Z,76.90
2022-09-17T02:23:09.074Z,77.00
2022-09-17T02:25:43.328Z,77.10
2022-09-17T02:28:18.486Z,77.00
2022-09-17T02:30:46.367Z,77.10
2022-09-17T02:33:15.988Z,77.10
2022-09-17T02:35:45.883Z,77.10
2022-09-17T02:38:14.996Z,77.10
2022-09-17T02:40:48.799Z,77.20
2022-09-17T02:43:28.538Z,77.30
2022-09-17T02:46:11.710Z,77.30
2022-09-17T02:49:13.269Z,77.30
2022-09-17T02:51:49.692Z,77.40
2022-09-17T02:54:27.474Z,77.40
2022-09-17T02:57:09.686Z,77.50
2022-09-17T02:59:43.838Z,77.50
2022-09-17T03:02:18.875Z,77.60
2022-09-17T03:04:50.343Z,77.60
2022-09-17T03:07:19.830Z,77.40
2022-09-17T03:09:47.536Z,77.30
2022-09-17T03:12:15.766Z,77.30
2022-09-17T03:14:43.672Z,77.30
2022-09-17T03:17:12.058Z,77.20
2022-09-17T03:19:39.762Z,78.00
2022-09-17T03:22:08.907Z,77.20
2022-09-17T03:24:36.670Z,77.30
2022-09-17T03:27:04.572Z,77.20
2022-09-17T03:29:32.389Z,77.30
2022-09-17T03:32:00.953Z,77.20
2022-09-17T03:34:28.634Z,77.30
2022-09-17T03:36:56.424Z,77.30
2022-09-17T03:39:25.550Z,77.30
2022-09-17T03:41:53.443Z,77.30
2022-09-17T03:44:22.903Z,77.30
2022-09-17T03:46:50.679Z,77.20
2022-09-17T03:49:18.433Z,77.30
2022-09-17T03:51:46.158Z,77.30
2022-09-17T03:54:14.906Z,77.20
2022-09-17T03:56:44.159Z,77.20
2022-09-17T03:59:11.867Z,77.30
2022-09-17T04:01:39.752Z,77.20
2022-09-17T04:04:07.831Z,77.30
2022-09-17T04:06:35.602Z,77.30
2022-09-17T04:09:05.046Z,77.30
2022-09-17T04:11:32.870Z,77.30
2022-09-17T04:14:02.036Z,77.20
2022-09-17T04:16:29.876Z,77.20
2022-09-17T04:18:57.659Z,77.20
2022-09-17T04:21:25.526Z,77.30
2022-09-17T04:23:53.627Z,77.30
2022-09-17T04:26:21.300Z,77.30
2022-09-17T04:28:49.114Z,77.40
2022-09-17T04:31:18.611Z,77.40
2022-09-17T04:33:46.423Z,77.40
2022-09-17T04:36:14.219Z,77.30
2022-09-17T04:38:41.963Z,77.30
2022-09-17T04:41:09.955Z,77.30
2022-09-17T04:43:37.965Z,77.30
2022-09-17T04:46:06.261Z,77.30
2022-09-17T04:48:35.684Z,77.20
2022-09-17T04:51:03.385Z,77.20
2022-09-17T04:53:31.064Z,77.20
2022-09-17T04:55:58.759Z,77.20
2022-09-17T04:58:26.585Z,77.20
2022-09-17T05:00:54.344Z,77.10
2022-09-17T05:03:22.179Z,77.30
2022-09-17T05:05:51.442Z,77.30
2022-09-17T05:08:19.162Z,77.30
2022-09-17T05:10:46.879Z,77.30
2022-09-17T05:13:14.626Z,77.20
2022-09-17T05:15:42.433Z,77.20
2022-09-17T05:18:10.231Z,77.20
2022-09-17T05:20:38.696Z,77.20
2022-09-17T05:23:07.949Z,77.30
2022-09-17T05:25:35.699Z,77.30
2022-09-17T05:28:03.747Z,77.20
2022-09-17T05:30:31.645Z,77.20
2022-09-17T05:33:04.177Z,77.20
2022-09-17T05:35:32.914Z,77.10
2022-09-17T05:38:01.712Z,77.20
2022-09-17T05:40:32.736Z,77.20
2022-09-17T05:43:01.578Z,77.30
2022-09-17T05:45:29.398Z,77.40
2022-09-17T05:47:57.626Z,77.20
2022-09-17T05:50:25.912Z,77.30
2022-09-17T05:52:54.390Z,77.30
2022-09-17T05:55:23.770Z,77.40
2022-09-17T05:57:53.227Z,77.30
2022-09-17T06:00:21.226Z,77.30
2022-09-17T06:02:54.793Z,77.20
2022-09-17T06:05:22.664Z,77.30
2022-09-17T06:07:50.385Z,77.30
2022-09-17T06:10:19.090Z,77.30
2022-09-17T06:12:47.215Z,77.30
2022-09-17T06:15:16.381Z,77.30
2022-09-17T06:17:44.081Z,77.20
2022-09-17T06:20:11.935Z,77.20
2022-09-17T06:22:39.689Z,77.20
2022-09-17T06:25:08.201Z,77.10
2022-09-17T06:27:36.473Z,77.10
2022-09-17T06:30:05.001Z,77.10
2022-09-17T06:32:34.226Z,77.20
2022-09-17T06:35:02.695Z,77.60
2022-09-17T06:37:31.556Z,77.70
2022-09-17T06:40:00.047Z,77.70
2022-09-17T06:42:28.858Z,77.60
2022-09-17T06:44:58.700Z,77.40
2022-09-17T06:47:27.777Z,77.40
2022-09-17T06:49:57.100Z,77.40
2022-09-17T06:52:25.008Z,77.50
2022-09-17T06:54:52.760Z,77.20
2022-09-17T06:57:20.489Z,77.20
2022-09-17T06:59:49.943Z,77.10
2022-09-17T07:02:17.665Z,77.10
2022-09-17T07:04:45.391Z,77.30
2022-09-17T07:07:14.663Z,77.20
2022-09-17T07:09:42.358Z,77.00
2022-09-17T07:12:10.315Z,77.00
2022-09-17T07:14:38.003Z,77.00
2022-09-17T07:17:05.755Z,77.20
2022-09-17T07:19:33.460Z,77.40
2022-09-17T07:22:01.263Z,77.60
2022-09-17T07:24:32.855Z,77.60
2022-09-17T07:27:01.019Z,77.40
2022-09-17T07:29:29.083Z,77.20
2022-09-17T07:31:58.356Z,77.10
2022-09-17T07:34:28.351Z,76.90
2022-09-17T07:36:56.050Z,76.90
2022-09-17T07:39:23.731Z,76.90
2022-09-17T07:41:52.984Z,76.90
2022-09-17T07:44:22.074Z,76.90
2022-09-17T07:46:49.985Z,77.00
2022-09-17T07:49:17.828Z,77.10
2022-09-17T07:51:45.585Z,77.00
2022-09-17T07:54:13.289Z,77.20
2022-09-17T07:56:41.024Z,77.30
2022-09-17T07:59:10.261Z,77.40
2022-09-17T08:01:38.062Z,77.50
2022-09-17T08:04:06.992Z,77.50
2022-09-17T08:06:38.559Z,77.50
2022-09-17T08:09:07.001Z,77.70
2022-09-17T08:14:29.186Z,77.50
2022-09-17T08:16:57.710Z,77.50
2022-09-17T08:19:25.490Z,77.50
2022-09-17T08:21:53.221Z,77.30
2022-09-17T08:24:20.914Z,77.30
2022-09-17T08:26:48.634Z,77.30
2022-09-17T08:29:16.425Z,77.20
2022-09-17T08:31:45.521Z,77.90
2022-09-17T08:34:14.213Z,77.20
2022-09-17T08:36:41.978Z,77.30
2022-09-17T08:39:12.133Z,77.20
2022-09-17T08:41:56.177Z,77.20
2022-09-17T08:44:27.202Z,77.20
2022-09-17T08:47:01.776Z,77.20
2022-09-17T08:49:36.189Z,77.20
2022-09-17T08:52:34.296Z,77.30
2022-09-17T08:55:08.296Z,77.20
2022-09-17T08:57:42.573Z,77.30
2022-09-17T09:00:14.579Z,77.40
2022-09-17T09:03:00.086Z,77.50
2022-09-17T09:05:33.226Z,77.40
2022-09-17T09:08:07.569Z,77.50
2022-09-17T09:10:46.394Z,77.60
2022-09-17T09:13:17.426Z,77.50
2022-09-17T09:15:48.668Z,77.30
2022-09-17T09:18:20.912Z,77.30
2022-09-17T09:20:53.484Z,77.30
2022-09-17T09:23:27.617Z,77.30
2022-09-17T09:26:09.968Z,77.40
2022-09-17T09:28:49.484Z,77.50
2022-09-17T09:31:30.320Z,77.60
2022-09-17T09:34:00.293Z,77.60
2022-09-17T09:36:31.354Z,77.60
2022-09-17T09:39:02.836Z,77.60
2022-09-17T09:41:37.633Z,77.50
2022-09-17T09:44:10.343Z,77.00
2022-09-17T09:47:03.617Z,76.60
2022-09-17T09:49:46.187Z,77.10
2022-09-17T09:52:24.823Z,77.10
2022-09-17T09:55:07.986Z,76.90
2022-09-17T09:57:43.921Z,77.20
2022-09-17T10:00:30.252Z,77.20
2022-09-17T10:03:04.068Z,76.70
2022-09-17T10:05:33.489Z,76.80
2022-09-17T10:08:01.967Z,76.80
2022-09-17T10:10:29.807Z,76.90
2022-09-17T10:13:07.546Z,76.80
2022-09-17T10:15:35.376Z,76.80
2022-09-17T10:18:16.818Z,76.80
2022-09-17T10:20:57.535Z,76.80
2022-09-17T10:23:28.522Z,76.80
2022-09-17T10:25:57.396Z,76.80
2022-09-17T10:28:47.817Z,76.70
2022-09-17T10:31:15.684Z,76.50
2022-09-17T10:33:57.088Z,76.50
2022-09-17T10:36:44.733Z,76.80
2022-09-17T10:39:39.768Z,77.30
2022-09-17T10:42:15.155Z,76.70
2022-09-17T10:44:53.311Z,77.30
2022-09-17T10:47:25.049Z,77.80
2022-09-17T10:49:57.331Z,77.20
2022-09-17T10:52:30.199Z,77.10
2022-09-17T10:55:09.735Z,77.30
2022-09-17T10:57:57.845Z,77.30
2022-09-17T11:00:26.203Z,77.40
2022-09-17T11:03:19.230Z,77.40
2022-09-17T11:06:09.742Z,77.50
2022-09-17T11:08:49.069Z,77.60
2022-09-17T11:11:28.543Z,77.50
2022-09-17T11:14:06.508Z,77.30
2022-09-17T11:16:43.870Z,77.20
2022-09-17T11:19:22.702Z,77.10
2022-09-17T11:21:57.917Z,76.90
2022-09-17T11:24:57.331Z,77.50
2022-09-17T11:27:44.237Z,77.80
2022-09-17T11:30:17.700Z,77.00
2022-09-17T11:33:06.201Z,77.10
2022-09-17T11:35:38.281Z,77.10
2022-09-17T11:38:11.678Z,77.00
2022-09-17T11:40:44.213Z,76.90
2022-09-17T11:43:20.499Z,77.80
2022-09-17T11:45:58.158Z,77.00
2022-09-17T11:48:34.976Z,77.00
2022-09-17T11:51:09.737Z,77.00
2022-09-17T11:53:42.204Z,77.00
2022-09-17T11:56:17.677Z,76.80
2022-09-17T11:58:49.730Z,76.80
2022-09-17T12:01:21.609Z,77.10
2022-09-17T12:03:52.770Z,77.60
2022-09-17T12:06:26.973Z,77.80
2022-09-17T12:09:00.284Z,78.00
2022-09-17T12:11:36.216Z,78.20
2022-09-17T12:14:10.277Z,78.20
2022-09-17T12:16:44.396Z,78.20
2022-09-17T12:19:18.487Z,78.20
2022-09-17T12:21:49.810Z,78.00
2022-09-17T12:24:23.868Z,78.00
2022-09-17T12:27:23.783Z,78.00
2022-09-17T12:30:07.337Z,78.00
2022-09-17T12:32:52.170Z,77.90
2022-09-17T12:35:52.754Z,77.60
2022-09-17T12:38:35.147Z,77.60
2022-09-17T12:41:08.897Z,77.60
2022-09-17T12:43:51.675Z,77.10
2022-09-17T12:46:38.511Z,77.10
2022-09-17T12:49:37.963Z,77.20
2022-09-17T12:52:14.796Z,77.40
2022-09-17T12:54:59.257Z,77.60
2022-09-17T12:57:37.731Z,77.60
2022-09-17T13:00:11.179Z,77.60
2022-09-17T13:02:42.753Z,77.60
2022-09-17T13:05:50.858Z,77.70
2022-09-17T13:09:14.279Z,77.70
2022-09-17T13:12:06.244Z,77.70
2022-09-17T13:14:53.002Z,77.70
2022-09-17T13:17:32.020Z,77.60
2022-09-17T13:20:05.013Z,77.50
2022-09-17T13:22:34.690Z,77.70
2022-09-17T13:25:06.523Z,77.50
2022-09-17T13:27:38.079Z,77.70
2022-09-17T13:30:07.604Z,77.70
2022-09-17T13:32:51.202Z,77.60
2022-09-17T13:35:52.175Z,77.50
2022-09-17T13:38:23.882Z,77.20
2022-09-17T13:40:53.249Z,77.10
2022-09-17T13:43:27.041Z,77.00
2022-09-17T13:46:23.597Z,76.90
2022-09-17T13:48:58.611Z,77.00
2022-09-17T13:51:54.640Z,77.10
2022-09-17T13:54:25.758Z,76.90
2022-09-17T13:57:10.607Z,76.90
2022-09-17T13:59:41.662Z,77.70
2022-09-17T14:02:39.453Z,78.10
2022-09-17T14:05:32.127Z,78.40
2022-09-17T14:08:27.755Z,78.30
2022-09-17T14:10:56.393Z,77.40
2022-09-17T14:13:45.911Z,77.40
2022-09-17T14:16:37.089Z,77.30
2022-09-17T14:19:21.990Z,77.30
2022-09-17T14:22:01.466Z,77.40
2022-09-17T14:24:36.679Z,77.40
2022-09-17T14:27:13.957Z,77.40
2022-09-17T14:30:02.607Z,77.50
2022-09-17T14:32:35.070Z,77.60
2022-09-17T14:35:17.856Z,77.70
2022-09-17T14:37:54.895Z,77.80
2022-09-17T14:40:24.939Z,78.00
2022-09-17T14:42:56.793Z,78.10
2022-09-17T14:45:28.842Z,77.70
2022-09-17T14:48:20.048Z,77.30
2022-09-17T14:50:47.973Z,76.90
2022-09-17T14:53:20.997Z,76.80
2022-09-17T14:55:50.299Z,76.70
2022-09-17T14:58:30.942Z,76.60
2022-09-17T15:00:59.180Z,76.50
2022-09-17T15:03:27.171Z,76.30
2022-09-17T15:05:54.934Z,76.10
2022-09-17T15:08:29.165Z,76.30
2022-09-17T15:10:59.868Z,76.10
2022-09-17T15:13:30.015Z,77.00
2022-09-17T15:16:01.989Z,77.20
2022-09-17T15:18:37.262Z,77.30
2022-09-17T15:21:11.553Z,77.50
2022-09-17T15:23:41.054Z,77.70
2022-09-17T15:26:08.863Z,77.70
2022-09-17T15:28:39.584Z,77.60
2022-09-17T15:31:14.782Z,77.60
2022-09-17T15:33:42.795Z,77.30
2022-09-17T15:36:22.162Z,77.30
2022-09-17T15:38:52.235Z,77.30
2022-09-17T15:41:32.914Z,77.20
2022-09-17T15:44:28.414Z,77.20
2022-09-17T15:46:57.602Z,77.20
2022-09-17T15:49:30.794Z,77.10
2022-09-17T15:52:31.511Z,77.10
2022-09-17T15:55:01.232Z,77.00
2022-09-17T15:57:31.346Z,76.90
2022-09-17T16:00:09.464Z,76.90
2022-09-17T16:02:37.425Z,76.80
2022-09-17T16:05:44.217Z,76.60
2022-09-17T16:08:23.940Z,76.60
2022-09-17T16:10:53.232Z,76.70
2022-09-17T16:13:23.188Z,76.70
2022-09-17T16:15:54.315Z,76.70
2022-09-17T16:18:22.073Z,76.60
2022-09-17T16:20:49.805Z,77.40
2022-09-17T16:23:17.574Z,76.80
2022-09-17T16:25:45.490Z,76.80
2022-09-17T16:28:17.968Z,76.80
2022-09-17T16:30:47.770Z,76.90
2022-09-17T16:33:17.843Z,77.00
2022-09-17T16:35:45.834Z,77.00
2022-09-17T16:38:13.857Z,77.00
2022-09-17T16:40:43.580Z,76.90
2022-09-17T16:43:11.441Z,77.00
2022-09-17T16:45:40.563Z,77.00
2022-09-17T16:48:08.681Z,77.00
2022-09-17T16:50:37.027Z,77.00
2022-09-17T16:53:05.501Z,77.00
2022-09-17T16:55:33.814Z,77.00
2022-09-17T16:58:01.544Z,77.00
2022-09-17T17:00:29.520Z,77.10
2022-09-17T17:02:59.242Z,77.00
2022-09-17T17:05:28.014Z,77.00
2022-09-17T17:07:56.492Z,77.00
2022-09-17T17:10:26.431Z,77.10
2022-09-17T17:12:54.297Z,77.10
2022-09-17T17:15:22.464Z,77.10
2022-09-17T17:17:50.581Z,77.20
2022-09-17T17:20:19.987Z,77.20
2022-09-17T17:22:47.741Z,77.20
2022-09-17T17:25:15.909Z,77.30
2022-09-17T17:27:44.428Z,77.20
2022-09-17T17:30:17.342Z,77.20
2022-09-17T17:32:49.936Z,77.20
2022-09-17T17:35:19.438Z,77.20
2022-09-17T17:37:47.596Z,77.00
2022-09-17T17:40:15.531Z,77.10
2022-09-17T17:42:44.166Z,77.00
2022-09-17T17:45:12.691Z,77.10
2022-09-17T17:47:40.583Z,77.10
2022-09-17T17:50:10.506Z,77.20
2022-09-17T17:52:43.283Z,77.20
2022-09-17T17:55:11.164Z,77.30
2022-09-17T17:57:38.873Z,77.40
2022-09-17T18:00:08.182Z,77.30
2022-09-17T18:02:36.085Z,77.40
2022-09-17T18:05:07.034Z,77.40
2022-09-17T18:07:35.231Z,77.40
2022-09-17T18:10:05.245Z,77.40
2022-09-17T18:12:33.086Z,77.30
2022-09-17T18:15:00.779Z,77.30
2022-09-17T18:17:29.663Z,77.30
2022-09-17T18:19:57.731Z,77.40
2022-09-17T18:22:25.585Z,77.30
2022-09-17T18:24:53.338Z,77.30
2022-09-17T18:27:22.363Z,77.30
2022-09-17T18:29:50.174Z,77.30
2022-09-17T18:32:17.926Z,77.30
2022-09-17T18:34:45.623Z,77.40
2022-09-17T18:37:13.323Z,77.30
2022-09-17T18:42:30.101Z,77.30
2022-09-17T18:44:58.011Z,77.30
2022-09-17T18:47:25.702Z,77.30
2022-09-17T18:49:53.433Z,77.30
2022-09-17T18:52:21.572Z,77.20
2022-09-17T18:54:49.383Z,77.30
2022-09-17T18:57:17.391Z,77.30
2022-09-17T18:59:46.782Z,77.30
2022-09-17T19:02:14.641Z,77.20
2022-09-17T19:04:42.356Z,77.20
2022-09-17T19:07:10.133Z,77.20
2022-09-17T19:09:37.817Z,77.20
2022-09-17T19:12:05.908Z,77.20
2022-09-17T19:14:33.809Z,77.10
2022-09-17T19:17:03.115Z,77.20
2022-09-17T19:19:30.894Z,77.10
2022-09-17T19:21:58.791Z,77.10
2022-09-17T19:24:26.613Z,77.20
2022-09-17T19:26:54.542Z,77.20
2022-09-17T19:29:22.486Z,77.10
2022-09-17T19:31:50.309Z,76.90
2022-09-17T19:34:19.411Z,76.90
2022-09-17T19:36:47.114Z,76.90
2022-09-17T19:39:14.920Z,77.00
2022-09-17T19:41:42.744Z,77.00
2022-09-17T19:44:10.754Z,77.10
2022-09-17T19:46:38.590Z,77.10
2022-09-17T19:49:07.002Z,77.10
2022-09-17T19:51:37.568Z,77.10
2022-09-17T19:54:06.639Z,77.10
2022-09-17T19:56:34.380Z,77.20
2022-09-17T19:59:02.094Z,77.20
2022-09-17T20:01:29.877Z,77.10
2022-09-17T20:03:57.594Z,77.30
2022-09-17T20:06:25.326Z,77.30
2022-09-17T20:08:55.944Z,77.40
2022-09-17T20:11:25.577Z,77.40
2022-09-17T20:13:58.151Z,77.50
2022-09-17T20:16:27.370Z,77.50
2022-09-17T20:18:55.240Z,77.50
2022-09-17T20:21:24.742Z,77.50
2022-09-17T20:23:54.185Z,77.50
2022-09-17T20:26:22.852Z,77.50
2022-09-17T20:28:52.409Z,77.40
2022-09-17T20:31:21.791Z,77.40
2022-09-17T20:33:53.209Z,77.50
2022-09-17T20:36:22.782Z,77.30
2022-09-17T20:41:42.150Z,77.40
2022-09-17T20:44:09.919Z,77.60
2022-09-17T20:46:37.703Z,77.60
2022-09-17T20:49:05.556Z,77.60
2022-09-17T20:51:33.897Z,77.60
2022-09-17T20:54:02.109Z,77.70
2022-09-17T20:56:33.228Z,77.60
2022-09-17T20:59:09.302Z,77.70
2022-09-17T21:01:38.093Z,77.60
2022-09-17T21:04:08.060Z,77.60
2022-09-17T21:06:37.589Z,77.60
2022-09-17T21:09:06.596Z,77.60
2022-09-17T21:11:35.535Z,77.60
2022-09-17T21:14:04.823Z,77.60
2022-09-17T21:16:32.684Z,77.50
2022-09-17T21:19:02.363Z,77.60
2022-09-17T21:21:34.175Z,77.60
2022-09-17T21:24:02.690Z,77.70
2022-09-17T21:26:30.665Z,77.80
2022-09-17T21:28:59.180Z,77.70
2022-09-17T21:31:32.332Z,77.80
2022-09-17T21:34:03.075Z,77.70
2022-09-17T21:36:32.609Z,77.70
2022-09-17T21:39:02.475Z,77.70
2022-09-17T21:41:31.066Z,77.70
2022-09-17T21:43:59.584Z,77.70
2022-09-17T21:46:30.252Z,77.80
2022-09-17T21:49:02.066Z,77.80
2022-09-17T21:51:31.955Z,77.80
2022-09-17T21:54:01.955Z,77.70
2022-09-17T21:56:31.001Z,77.70
2022-09-17T21:59:00.822Z,77.80
2022-09-17T22:01:32.609Z,77.60
2022-09-17T22:04:01.908Z,77.60
2022-09-17T22:06:32.233Z,77.60
2022-09-17T22:09:01.937Z,77.60
2022-09-17T22:11:31.343Z,77.60
2022-09-17T22:14:04.826Z,77.60
2022-09-17T22:16:36.068Z,77.60
2022-09-17T22:19:05.039Z,77.60
2022-09-17T22:21:34.907Z,77.60
2022-09-17T22:24:03.783Z,77.60
2022-09-17T22:26:33.530Z,77.70
2022-09-17T22:29:02.778Z,77.80
2022-09-17T22:31:30.895Z,77.90
2022-09-17T22:34:00.690Z,77.80
2022-09-17T22:36:28.837Z,77.70
2022-09-17T22:38:58.315Z,77.80
2022-09-17T22:41:27.984Z,77.70
2022-09-17T22:43:56.853Z,77.60
2022-09-17T22:46:26.837Z,77.60
2022-09-17T22:48:55.194Z,77.50
2022-09-17T22:51:25.032Z,77.60
2022-09-17T22:53:53.104Z,77.60
2022-09-17T22:56:23.192Z,77.50
2022-09-17T22:58:51.433Z,77.40
2022-09-17T23:01:24.211Z,77.30
2022-09-17T23:03:53.323Z,77.50
2022-09-17T23:06:25.828Z,77.20
2022-09-17T23:08:54.514Z,77.30
2022-09-17T23:11:24.375Z,77.40
2022-09-17T23:13:53.145Z,77.40
2022-09-17T23:16:21.157Z,77.50
2022-09-17T23:18:48.935Z,77.50
2022-09-17T23:21:18.381Z,77.60
2022-09-17T23:23:49.141Z,77.80
2022-09-17T23:26:19.354Z,77.80
2022-09-17T23:28:47.691Z,77.90
2022-09-17T23:31:17.340Z,77.90
2022-09-17T23:33:45.417Z,77.90
2022-09-17T23:36:15.115Z,77.80
2022-09-17T23:38:44.282Z,77.80
2022-09-17T23:41:15.609Z,77.70
2022-09-17T23:43:43.624Z,77.80
2022-09-17T23:46:11.754Z,77.80
2022-09-17T23:48:39.780Z,77.80
2022-09-17T23:51:08.435Z,77.80
2022-09-17T23:53:36.967Z,77.70
2022-09-17T23:56:09.475Z,77.70
2022-09-17T23:58:38.517Z,77.60
